sensor_id;sensor_type;location;lat;lon;timestamp;P1;durP1;ratioP1;P2;durP2;ratioP2
23565;SDS011;22140;48.988;8.544;2022-10-16T00:00:41;6.65;;;1.30;;
23565;SDS011;22140;48.988;8.544;2022-10-16T00:05:43;8.00;;;1.80;;
23565;SDS011;22140;48.988;8.544;2022-10-16T00:10:44;6.90;;;1.20;;
23565;SDS011;22140;48.988;8.544;2022-10-16T00:15:46;12.40;;;5.28;;
23565;SDS011;22140;48.988;8.544;2022-10-16T00:20:47;8.57;;;3.15;;
23565;SDS011;22140;48.988;8.544;2022-10-16T00:25:55;10.33;;;2.17;;
23565;SDS011;22140;48.988;8.544;2022-10-16T00:30:57;8.37;;;1.50;;
23565;SDS011;22140;48.988;8.544;2022-10-16T00:35:58;7.10;;;2.00;;
23565;SDS011;22140;48.988;8.544;2022-10-16T00:41:00;7.35;;;1.80;;
23565;SDS011;22140;48.988;8.544;2022-10-16T00:46:02;5.97;;;1.40;;
23565;SDS011;22140;48.988;8.544;2022-10-16T00:51:06;5.28;;;1.80;;
23565;SDS011;22140;48.988;8.544;2022-10-16T00:56:08;9.18;;;2.30;;
23565;SDS011;22140;48.988;8.544;2022-10-16T01:01:09;7.87;;;3.70;;
23565;SDS011;22140;48.988;8.544;2022-10-16T01:06:21;9.15;;;1.70;;
23565;SDS011;22140;48.988;8.544;2022-10-16T01:12:12;5.30;;;1.70;;
23565;SDS011;22140;48.988;8.544;2022-10-16T01:16:55;5.33;;;1.90;;
23565;SDS011;22140;48.988;8.544;2022-10-16T01:21:58;7.03;;;1.70;;
23565;SDS011;22140;48.988;8.544;2022-10-16T01:27:13;7.22;;;1.60;;
23565;SDS011;22140;48.988;8.544;2022-10-16T01:32:19;6.90;;;1.42;;
23565;SDS011;22140;48.988;8.544;2022-10-16T01:37:22;7.00;;;1.50;;
23565;SDS011;22140;48.988;8.544;2022-10-16T01:42:28;7.80;;;1.60;;
23565;SDS011;22140;48.988;8.544;2022-10-16T01:47:31;7.07;;;1.45;;
23565;SDS011;22140;48.988;8.544;2022-10-16T01:52:34;4.97;;;1.47;;
23565;SDS011;22140;48.988;8.544;2022-10-16T01:57:37;9.23;;;1.50;;
23565;SDS011;22140;48.988;8.544;2022-10-16T02:02:40;6.72;;;1.50;;
23565;SDS011;22140;48.988;8.544;2022-10-16T02:07:42;8.77;;;1.53;;
23565;SDS011;22140;48.988;8.544;2022-10-16T02:12:50;5.10;;;1.30;;
23565;SDS011;22140;48.988;8.544;2022-10-16T02:17:53;6.00;;;1.30;;
23565;SDS011;22140;48.988;8.544;2022-10-16T02:22:54;6.72;;;1.35;;
23565;SDS011;22140;48.988;8.544;2022-10-16T02:27:57;13.70;;;4.27;;
23565;SDS011;22140;48.988;8.544;2022-10-16T02:33:00;14.85;;;4.72;;
23565;SDS011;22140;48.988;8.544;2022-10-16T02:38:02;6.00;;;1.60;;
23565;SDS011;22140;48.988;8.544;2022-10-16T02:43:04;9.20;;;2.20;;
23565;SDS011;22140;48.988;8.544;2022-10-16T02:48:06;10.90;;;2.33;;
23565;SDS011;22140;48.988;8.544;2022-10-16T02:53:07;11.07;;;2.28;;
23565;SDS011;22140;48.988;8.544;2022-10-16T02:58:09;8.67;;;1.80;;
23565;SDS011;22140;48.988;8.544;2022-10-16T03:03:10;8.97;;;2.10;;
23565;SDS011;22140;48.988;8.544;2022-10-16T03:08:12;8.88;;;1.70;;
23565;SDS011;22140;48.988;8.544;2022-10-16T03:13:13;13.85;;;1.80;;
23565;SDS011;22140;48.988;8.544;2022-10-16T03:18:14;6.77;;;1.50;;
23565;SDS011;22140;48.988;8.544;2022-10-16T03:23:15;7.50;;;1.70;;
23565;SDS011;22140;48.988;8.544;2022-10-16T03:28:17;10.90;;;1.50;;
23565;SDS011;22140;48.988;8.544;2022-10-16T03:33:18;9.80;;;1.80;;
23565;SDS011;22140;48.988;8.544;2022-10-16T03:38:20;6.80;;;1.60;;
23565;SDS011;22140;48.988;8.544;2022-10-16T03:43:21;4.80;;;1.23;;
23565;SDS011;22140;48.988;8.544;2022-10-16T03:48:23;10.63;;;1.50;;
23565;SDS011;22140;48.988;8.544;2022-10-16T03:53:24;10.87;;;1.70;;
23565;SDS011;22140;48.988;8.544;2022-10-16T03:58:25;6.82;;;1.50;;
23565;SDS011;22140;48.988;8.544;2022-10-16T04:03:26;7.60;;;1.70;;
23565;SDS011;22140;48.988;8.544;2022-10-16T04:08:28;6.50;;;1.70;;
23565;SDS011;22140;48.988;8.544;2022-10-16T04:13:29;7.03;;;1.70;;
23565;SDS011;22140;48.988;8.544;2022-10-16T04:18:30;9.55;;;1.73;;
23565;SDS011;22140;48.988;8.544;2022-10-16T04:23:32;6.53;;;1.70;;
23565;SDS011;22140;48.988;8.544;2022-10-16T04:28:33;6.53;;;1.30;;
23565;SDS011;22140;48.988;8.544;2022-10-16T04:33:34;7.00;;;1.63;;
23565;SDS011;22140;48.988;8.544;2022-10-16T04:38:36;10.43;;;1.93;;
23565;SDS011;22140;48.988;8.544;2022-10-16T04:43:38;8.37;;;1.60;;
23565;SDS011;22140;48.988;8.544;2022-10-16T04:48:39;9.55;;;1.60;;
23565;SDS011;22140;48.988;8.544;2022-10-16T04:53:40;7.43;;;1.52;;
23565;SDS011;22140;48.988;8.544;2022-10-16T04:58:42;9.33;;;1.57;;
23565;SDS011;22140;48.988;8.544;2022-10-16T05:03:43;6.25;;;1.27;;
23565;SDS011;22140;48.988;8.544;2022-10-16T05:08:44;9.35;;;1.60;;
23565;SDS011;22140;48.988;8.544;2022-10-16T05:13:46;11.37;;;1.80;;
23565;SDS011;22140;48.988;8.544;2022-10-16T05:18:52;9.43;;;1.40;;
23565;SDS011;22140;48.988;8.544;2022-10-16T05:24:10;5.72;;;1.50;;
23565;SDS011;22140;48.988;8.544;2022-10-16T05:29:11;8.53;;;1.50;;
23565;SDS011;22140;48.988;8.544;2022-10-16T05:34:13;5.13;;;1.30;;
23565;SDS011;22140;48.988;8.544;2022-10-16T05:39:14;6.85;;;1.55;;
23565;SDS011;22140;48.988;8.544;2022-10-16T05:44:16;8.27;;;1.57;;
23565;SDS011;22140;48.988;8.544;2022-10-16T05:49:17;6.97;;;2.00;;
23565;SDS011;22140;48.988;8.544;2022-10-16T05:54:18;7.72;;;1.70;;
23565;SDS011;22140;48.988;8.544;2022-10-16T05:59:19;7.65;;;1.60;;
23565;SDS011;22140;48.988;8.544;2022-10-16T06:04:21;9.53;;;1.80;;
23565;SDS011;22140;48.988;8.544;2022-10-16T06:09:22;7.10;;;2.08;;
23565;SDS011;22140;48.988;8.544;2022-10-16T06:14:23;6.38;;;2.05;;
23565;SDS011;22140;48.988;8.544;2022-10-16T06:19:25;11.77;;;1.80;;
23565;SDS011;22140;48.988;8.544;2022-10-16T06:24:26;12.98;;;1.98;;
23565;SDS011;22140;48.988;8.544;2022-10-16T06:29:27;6.47;;;1.60;;
23565;SDS011;22140;48.988;8.544;2022-10-16T06:34:28;8.70;;;1.70;;
23565;SDS011;22140;48.988;8.544;2022-10-16T06:39:30;6.65;;;1.63;;
23565;SDS011;22140;48.988;8.544;2022-10-16T06:44:31;6.15;;;1.38;;
23565;SDS011;22140;48.988;8.544;2022-10-16T06:49:32;10.43;;;1.80;;
23565;SDS011;22140;48.988;8.544;2022-10-16T06:54:33;6.10;;;1.47;;
23565;SDS011;22140;48.988;8.544;2022-10-16T06:59:42;10.18;;;3.33;;
23565;SDS011;22140;48.988;8.544;2022-10-16T07:04:47;12.73;;;3.87;;
23565;SDS011;22140;48.988;8.544;2022-10-16T07:09:48;10.43;;;2.40;;
23565;SDS011;22140;48.988;8.544;2022-10-16T07:14:49;9.88;;;1.88;;
23565;SDS011;22140;48.988;8.544;2022-10-16T07:19:53;8.32;;;2.30;;
23565;SDS011;22140;48.988;8.544;2022-10-16T07:24:54;11.57;;;2.37;;
23565;SDS011;22140;48.988;8.544;2022-10-16T07:29:55;7.85;;;2.38;;
23565;SDS011;22140;48.988;8.544;2022-10-16T07:34:57;6.78;;;2.08;;
23565;SDS011;22140;48.988;8.544;2022-10-16T07:39:58;8.30;;;2.10;;
23565;SDS011;22140;48.988;8.544;2022-10-16T07:44:59;10.10;;;2.40;;
23565;SDS011;22140;48.988;8.544;2022-10-16T07:50:00;12.02;;;1.85;;
23565;SDS011;22140;48.988;8.544;2022-10-16T07:55:02;9.57;;;1.80;;
23565;SDS011;22140;48.988;8.544;2022-10-16T08:00:04;6.20;;;1.77;;
23565;SDS011;22140;48.988;8.544;2022-10-16T08:05:05;6.38;;;1.90;;
23565;SDS011;22140;48.988;8.544;2022-10-16T08:10:11;8.23;;;1.98;;
23565;SDS011;22140;48.988;8.544;2022-10-16T08:15:16;5.07;;;1.30;;
23565;SDS011;22140;48.988;8.544;2022-10-16T08:20:18;11.18;;;1.83;;
23565;SDS011;22140;48.988;8.544;2022-10-16T08:25:19;6.72;;;1.80;;
23565;SDS011;22140;48.988;8.544;2022-10-16T08:30:21;7.97;;;2.00;;
23565;SDS011;22140;48.988;8.544;2022-10-16T08:35:23;6.50;;;2.40;;
23565;SDS011;22140;48.988;8.544;2022-10-16T08:40:26;10.07;;;2.40;;
23565;SDS011;22140;48.988;8.544;2022-10-16T08:45:40;6.03;;;1.83;;
23565;SDS011;22140;48.988;8.544;2022-10-16T08:50:44;6.67;;;2.00;;
23565;SDS011;22140;48.988;8.544;2022-10-16T08:55:47;10.50;;;2.50;;
23565;SDS011;22140;48.988;8.544;2022-10-16T09:00:53;12.65;;;2.50;;
23565;SDS011;22140;48.988;8.544;2022-10-16T09:05:57;8.13;;;2.43;;
23565;SDS011;22140;48.988;8.544;2022-10-16T09:11:03;5.80;;;2.05;;
23565;SDS011;22140;48.988;8.544;2022-10-16T09:16:18;8.40;;;2.10;;
23565;SDS011;22140;48.988;8.544;2022-10-16T09:21:27;7.97;;;1.93;;
23565;SDS011;22140;48.988;8.544;2022-10-16T09:26:30;11.90;;;1.60;;
23565;SDS011;22140;48.988;8.544;2022-10-16T09:31:31;6.07;;;1.50;;
23565;SDS011;22140;48.988;8.544;2022-10-16T09:36:36;6.77;;;1.50;;
23565;SDS011;22140;48.988;8.544;2022-10-16T09:41:41;6.93;;;1.33;;
23565;SDS011;22140;48.988;8.544;2022-10-16T09:46:43;12.20;;;1.70;;
23565;SDS011;22140;48.988;8.544;2022-10-16T09:51:44;5.57;;;1.50;;
23565;SDS011;22140;48.988;8.544;2022-10-16T09:56:46;8.97;;;1.80;;
23565;SDS011;22140;48.988;8.544;2022-10-16T10:01:53;6.65;;;1.48;;
23565;SDS011;22140;48.988;8.544;2022-10-16T10:06:56;6.75;;;1.30;;
23565;SDS011;22140;48.988;8.544;2022-10-16T10:11:58;7.03;;;1.50;;
23565;SDS011;22140;48.988;8.544;2022-10-16T10:22:16;7.38;;;1.63;;
23565;SDS011;22140;48.988;8.544;2022-10-16T10:27:17;6.53;;;1.50;;
23565;SDS011;22140;48.988;8.544;2022-10-16T10:32:31;4.80;;;1.53;;
23565;SDS011;22140;48.988;8.544;2022-10-16T10:43:07;7.43;;;1.42;;
23565;SDS011;22140;48.988;8.544;2022-10-16T11:08:39;8.27;;;1.73;;
23565;SDS011;22140;48.988;8.544;2022-10-16T11:13:43;6.07;;;1.63;;
23565;SDS011;22140;48.988;8.544;2022-10-16T11:19:02;5.30;;;1.60;;
23565;SDS011;22140;48.988;8.544;2022-10-16T11:24:08;8.13;;;1.63;;
23565;SDS011;22140;48.988;8.544;2022-10-16T11:29:13;9.95;;;1.98;;
23565;SDS011;22140;48.988;8.544;2022-10-16T11:34:32;9.05;;;1.90;;
23565;SDS011;22140;48.988;8.544;2022-10-16T11:39:38;6.67;;;1.60;;
23565;SDS011;22140;48.988;8.544;2022-10-16T11:49:44;14.60;;;2.40;;
23565;SDS011;22140;48.988;8.544;2022-10-16T11:59:52;9.70;;;1.75;;
23565;SDS011;22140;48.988;8.544;2022-10-16T12:05:01;9.15;;;2.10;;
23565;SDS011;22140;48.988;8.544;2022-10-16T12:10:25;6.23;;;1.60;;
23565;SDS011;22140;48.988;8.544;2022-10-16T12:15:29;7.77;;;1.70;;
23565;SDS011;22140;48.988;8.544;2022-10-16T12:20:56;9.55;;;1.88;;
23565;SDS011;22140;48.988;8.544;2022-10-16T12:26:00;8.00;;;1.70;;
23565;SDS011;22140;48.988;8.544;2022-10-16T12:31:04;15.17;;;1.70;;
23565;SDS011;22140;48.988;8.544;2022-10-16T12:36:14;10.40;;;1.60;;
23565;SDS011;22140;48.988;8.544;2022-10-16T12:56:35;10.45;;;1.67;;
23565;SDS011;22140;48.988;8.544;2022-10-16T13:01:42;7.77;;;1.87;;
23565;SDS011;22140;48.988;8.544;2022-10-16T13:06:51;10.10;;;1.90;;
23565;SDS011;22140;48.988;8.544;2022-10-16T13:12:01;9.00;;;1.98;;
23565;SDS011;22140;48.988;8.544;2022-10-16T13:32:27;5.57;;;1.58;;
23565;SDS011;22140;48.988;8.544;2022-10-16T13:37:29;6.00;;;1.70;;
23565;SDS011;22140;48.988;8.544;2022-10-16T13:42:31;7.78;;;1.63;;
23565;SDS011;22140;48.988;8.544;2022-10-16T13:47:32;5.22;;;1.67;;
23565;SDS011;22140;48.988;8.544;2022-10-16T13:52:34;6.13;;;1.67;;
23565;SDS011;22140;48.988;8.544;2022-10-16T13:57:35;6.20;;;1.60;;
23565;SDS011;22140;48.988;8.544;2022-10-16T14:02:37;7.13;;;1.80;;
23565;SDS011;22140;48.988;8.544;2022-10-16T14:07:40;6.30;;;1.90;;
23565;SDS011;22140;48.988;8.544;2022-10-16T14:12:41;7.40;;;2.07;;
23565;SDS011;22140;48.988;8.544;2022-10-16T14:17:43;7.53;;;1.90;;
23565;SDS011;22140;48.988;8.544;2022-10-16T14:22:45;8.57;;;1.90;;
23565;SDS011;22140;48.988;8.544;2022-10-16T14:27:57;8.97;;;1.90;;
23565;SDS011;22140;48.988;8.544;2022-10-16T14:33:01;7.30;;;2.13;;
23565;SDS011;22140;48.988;8.544;2022-10-16T14:38:03;5.93;;;1.77;;
23565;SDS011;22140;48.988;8.544;2022-10-16T14:43:05;7.10;;;2.30;;
23565;SDS011;22140;48.988;8.544;2022-10-16T14:48:13;7.95;;;2.20;;
23565;SDS011;22140;48.988;8.544;2022-10-16T14:53:20;10.23;;;2.22;;
23565;SDS011;22140;48.988;8.544;2022-10-16T14:58:21;14.90;;;3.40;;
23565;SDS011;22140;48.988;8.544;2022-10-16T15:03:23;6.80;;;1.70;;
23565;SDS011;22140;48.988;8.544;2022-10-16T15:08:25;7.45;;;1.73;;
23565;SDS011;22140;48.988;8.544;2022-10-16T15:13:26;8.18;;;1.75;;
23565;SDS011;22140;48.988;8.544;2022-10-16T15:18:27;8.47;;;1.70;;
23565;SDS011;22140;48.988;8.544;2022-10-16T15:23:29;10.23;;;1.70;;
23565;SDS011;22140;48.988;8.544;2022-10-16T15:28:30;10.43;;;2.00;;
23565;SDS011;22140;48.988;8.544;2022-10-16T15:33:32;10.23;;;2.27;;
23565;SDS011;22140;48.988;8.544;2022-10-16T15:38:40;7.10;;;2.30;;
23565;SDS011;22140;48.988;8.544;2022-10-16T15:43:41;12.10;;;2.80;;
23565;SDS011;22140;48.988;8.544;2022-10-16T15:48:42;16.70;;;2.90;;
23565;SDS011;22140;48.988;8.544;2022-10-16T15:53:44;11.20;;;3.20;;
23565;SDS011;22140;48.988;8.544;2022-10-16T15:58:47;11.52;;;4.15;;
23565;SDS011;22140;48.988;8.544;2022-10-16T16:03:52;10.13;;;3.55;;
23565;SDS011;22140;48.988;8.544;2022-10-16T16:08:53;13.20;;;3.10;;
23565;SDS011;22140;48.988;8.544;2022-10-16T16:13:54;8.68;;;3.60;;
23565;SDS011;22140;48.988;8.544;2022-10-16T16:18:56;17.13;;;4.25;;
23565;SDS011;22140;48.988;8.544;2022-10-16T16:23:57;20.93;;;5.10;;
23565;SDS011;22140;48.988;8.544;2022-10-16T16:28:59;8.60;;;3.25;;
23565;SDS011;22140;48.988;8.544;2022-10-16T16:34:00;10.57;;;3.50;;
23565;SDS011;22140;48.988;8.544;2022-10-16T16:39:02;11.13;;;3.10;;
23565;SDS011;22140;48.988;8.544;2022-10-16T16:44:04;18.70;;;3.33;;
23565;SDS011;22140;48.988;8.544;2022-10-16T16:49:06;15.35;;;3.85;;
23565;SDS011;22140;48.988;8.544;2022-10-16T16:54:11;16.90;;;4.15;;
23565;SDS011;22140;48.988;8.544;2022-10-16T16:59:15;17.10;;;4.17;;
23565;SDS011;22140;48.988;8.544;2022-10-16T17:04:16;14.63;;;3.85;;
23565;SDS011;22140;48.988;8.544;2022-10-16T17:09:18;13.20;;;4.13;;
23565;SDS011;22140;48.988;8.544;2022-10-16T17:14:19;11.77;;;3.60;;
23565;SDS011;22140;48.988;8.544;2022-10-16T17:19:20;12.55;;;2.90;;
23565;SDS011;22140;48.988;8.544;2022-10-16T17:24:22;18.10;;;3.50;;
23565;SDS011;22140;48.988;8.544;2022-10-16T17:29:23;19.47;;;3.57;;
23565;SDS011;22140;48.988;8.544;2022-10-16T17:34:25;16.30;;;3.27;;
23565;SDS011;22140;48.988;8.544;2022-10-16T17:39:26;14.18;;;2.60;;
23565;SDS011;22140;48.988;8.544;2022-10-16T17:44:27;22.25;;;4.05;;
23565;SDS011;22140;48.988;8.544;2022-10-16T17:49:29;14.17;;;4.27;;
23565;SDS011;22140;48.988;8.544;2022-10-16T17:54:30;9.18;;;3.60;;
23565;SDS011;22140;48.988;8.544;2022-10-16T17:59:31;12.43;;;4.05;;
23565;SDS011;22140;48.988;8.544;2022-10-16T18:04:33;20.67;;;5.50;;
23565;SDS011;22140;48.988;8.544;2022-10-16T18:09:34;18.83;;;5.13;;
23565;SDS011;22140;48.988;8.544;2022-10-16T18:14:35;11.27;;;3.70;;
23565;SDS011;22140;48.988;8.544;2022-10-16T18:19:36;13.20;;;3.50;;
23565;SDS011;22140;48.988;8.544;2022-10-16T18:24:38;10.67;;;3.50;;
23565;SDS011;22140;48.988;8.544;2022-10-16T18:29:39;13.07;;;3.70;;
23565;SDS011;22140;48.988;8.544;2022-10-16T18:34:40;14.57;;;3.85;;
23565;SDS011;22140;48.988;8.544;2022-10-16T18:39:44;13.83;;;4.53;;
23565;SDS011;22140;48.988;8.544;2022-10-16T18:44:46;15.73;;;4.68;;
23565;SDS011;22140;48.988;8.544;2022-10-16T18:49:52;12.45;;;4.20;;
23565;SDS011;22140;48.988;8.544;2022-10-16T18:54:56;17.07;;;4.10;;
23565;SDS011;22140;48.988;8.544;2022-10-16T18:59:58;13.60;;;4.20;;
23565;SDS011;22140;48.988;8.544;2022-10-16T19:04:59;15.90;;;4.13;;
23565;SDS011;22140;48.988;8.544;2022-10-16T19:10:06;15.27;;;4.37;;
23565;SDS011;22140;48.988;8.544;2022-10-16T19:15:08;8.90;;;4.07;;
23565;SDS011;22140;48.988;8.544;2022-10-16T19:20:09;15.15;;;5.93;;
23565;SDS011;22140;48.988;8.544;2022-10-16T19:25:10;16.75;;;5.68;;
23565;SDS011;22140;48.988;8.544;2022-10-16T19:30:12;15.73;;;4.90;;
23565;SDS011;22140;48.988;8.544;2022-10-16T19:35:18;9.85;;;3.95;;
23565;SDS011;22140;48.988;8.544;2022-10-16T19:40:19;11.18;;;3.90;;
23565;SDS011;22140;48.988;8.544;2022-10-16T19:45:21;15.67;;;3.53;;
23565;SDS011;22140;48.988;8.544;2022-10-16T19:50:22;18.13;;;4.55;;
23565;SDS011;22140;48.988;8.544;2022-10-16T19:55:24;11.50;;;3.90;;
23565;SDS011;22140;48.988;8.544;2022-10-16T20:00:25;13.10;;;4.20;;
23565;SDS011;22140;48.988;8.544;2022-10-16T20:05:26;18.95;;;4.45;;
23565;SDS011;22140;48.988;8.544;2022-10-16T20:10:27;18.02;;;4.88;;
23565;SDS011;22140;48.988;8.544;2022-10-16T20:15:29;14.73;;;5.03;;
23565;SDS011;22140;48.988;8.544;2022-10-16T20:20:30;13.80;;;4.77;;
23565;SDS011;22140;48.988;8.544;2022-10-16T20:25:35;15.60;;;4.60;;
23565;SDS011;22140;48.988;8.544;2022-10-16T20:30:37;13.57;;;4.20;;
23565;SDS011;22140;48.988;8.544;2022-10-16T20:35:48;14.47;;;4.80;;
23565;SDS011;22140;48.988;8.544;2022-10-16T20:40:50;15.25;;;4.70;;
23565;SDS011;22140;48.988;8.544;2022-10-16T20:45:57;12.73;;;4.50;;
23565;SDS011;22140;48.988;8.544;2022-10-16T20:50:59;12.47;;;4.70;;
23565;SDS011;22140;48.988;8.544;2022-10-16T20:56:00;18.42;;;4.82;;
23565;SDS011;22140;48.988;8.544;2022-10-16T21:01:06;16.35;;;5.22;;
23565;SDS011;22140;48.988;8.544;2022-10-16T21:06:08;11.90;;;4.50;;
23565;SDS011;22140;48.988;8.544;2022-10-16T21:11:14;14.80;;;4.32;;
23565;SDS011;22140;48.988;8.544;2022-10-16T21:16:16;11.55;;;3.70;;
23565;SDS011;22140;48.988;8.544;2022-10-16T21:21:19;12.93;;;4.00;;
23565;SDS011;22140;48.988;8.544;2022-10-16T21:26:21;10.98;;;4.43;;
23565;SDS011;22140;48.988;8.544;2022-10-16T21:31:39;12.73;;;4.53;;
23565;SDS011;22140;48.988;8.544;2022-10-16T21:36:41;14.83;;;4.20;;
23565;SDS011;22140;48.988;8.544;2022-10-16T21:41:43;19.70;;;4.63;;
23565;SDS011;22140;48.988;8.544;2022-10-16T21:46:45;12.73;;;4.13;;
23565;SDS011;22140;48.988;8.544;2022-10-16T21:51:47;14.90;;;4.00;;
23565;SDS011;22140;48.988;8.544;2022-10-16T21:56:49;13.23;;;4.38;;
23565;SDS011;22140;48.988;8.544;2022-10-16T22:01:54;13.90;;;4.47;;
23565;SDS011;22140;48.988;8.544;2022-10-16T22:06:55;14.30;;;4.60;;
23565;SDS011;22140;48.988;8.544;2022-10-16T22:11:56;16.55;;;4.20;;
23565;SDS011;22140;48.988;8.544;2022-10-16T22:16:57;15.43;;;4.57;;
23565;SDS011;22140;48.988;8.544;2022-10-16T22:21:59;11.20;;;4.20;;
23565;SDS011;22140;48.988;8.544;2022-10-16T22:27:02;12.77;;;4.10;;
23565;SDS011;22140;48.988;8.544;2022-10-16T22:32:03;10.10;;;3.60;;
23565;SDS011;22140;48.988;8.544;2022-10-16T22:37:04;11.93;;;3.53;;
23565;SDS011;22140;48.988;8.544;2022-10-16T22:42:06;14.48;;;3.25;;
23565;SDS011;22140;48.988;8.544;2022-10-16T22:47:07;14.43;;;4.00;;
23565;SDS011;22140;48.988;8.544;2022-10-16T22:52:08;20.60;;;5.63;;
23565;SDS011;22140;48.988;8.544;2022-10-16T22:57:10;17.80;;;5.80;;
23565;SDS011;22140;48.988;8.544;2022-10-16T23:02:11;14.63;;;4.80;;
23565;SDS011;22140;48.988;8.544;2022-10-16T23:07:12;20.10;;;5.13;;
23565;SDS011;22140;48.988;8.544;2022-10-16T23:12:13;13.43;;;4.10;;
23565;SDS011;22140;48.988;8.544;2022-10-16T23:17:15;16.90;;;4.13;;
23565;SDS011;22140;48.988;8.544;2022-10-16T23:22:16;16.97;;;4.47;;
23565;SDS011;22140;48.988;8.544;2022-10-16T23:27:17;11.27;;;4.10;;
23565;SDS011;22140;48.988;8.544;2022-10-16T23:32:18;13.37;;;4.20;;
23565;SDS011;22140;48.988;8.544;2022-10-16T23:37:20;14.40;;;3.33;;
23565;SDS011;22140;48.988;8.544;2022-10-16T23:42:21;12.07;;;3.90;;
23565;SDS011;22140;48.988;8.544;2022-10-16T23:47:22;14.33;;;4.13;;
23565;SDS011;22140;48.988;8.544;2022-10-16T23:52:24;13.30;;;3.57;;
23565;SDS011;22140;48.988;8.544;2022-10-16T23:57:25;13.82;;;3.75;;
